sensor_id;sensor_type;location;lat;lon;timestamp;P1;durP1;ratioP1;P2;durP2;ratioP2
32639;SDS011;19049;52.524;11.468;2024-01-15T00:02:12;18.53;;;11.97;;
32639;SDS011;19049;52.524;11.468;2024-01-15T00:04:38;19.00;;;11.63;;
32639;SDS011;19049;52.524;11.468;2024-01-15T00:07:04;18.47;;;10.20;;
32639;SDS011;19049;52.524;11.468;2024-01-15T00:09:30;16.90;;;10.03;;
32639;SDS011;19049;52.524;11.468;2024-01-15T00:11:56;19.20;;;11.10;;
32639;SDS011;19049;52.524;11.468;2024-01-15T00:14:22;18.97;;;11.40;;
32639;SDS011;19049;52.524;11.468;2024-01-15T00:16:48;21.53;;;11.97;;
32639;SDS011;19049;52.524;11.468;2024-01-15T00:19:16;20.47;;;11.70;;
32639;SDS011;19049;52.524;11.468;2024-01-15T00:21:42;17.70;;;11.50;;
32639;SDS011;19049;52.524;11.468;2024-01-15T00:24:08;17.30;;;11.30;;
32639;SDS011;19049;52.524;11.468;2024-01-15T00:26:33;19.83;;;10.97;;
32639;SDS011;19049;52.524;11.468;2024-01-15T00:28:59;16.80;;;10.70;;
32639;SDS011;19049;52.524;11.468;2024-01-15T00:31:24;18.20;;;10.90;;
32639;SDS011;19049;52.524;11.468;2024-01-15T00:33:50;17.37;;;10.70;;
32639;SDS011;19049;52.524;11.468;2024-01-15T00:36:15;16.13;;;9.97;;
32639;SDS011;19049;52.524;11.468;2024-01-15T00:38:41;14.27;;;9.63;;
32639;SDS011;19049;52.524;11.468;2024-01-15T00:41:08;15.27;;;9.70;;
32639;SDS011;19049;52.524;11.468;2024-01-15T00:43:34;16.37;;;10.23;;
32639;SDS011;19049;52.524;11.468;2024-01-15T00:46:01;15.27;;;9.20;;
32639;SDS011;19049;52.524;11.468;2024-01-15T00:48:27;15.07;;;9.63;;
32639;SDS011;19049;52.524;11.468;2024-01-15T00:50:53;14.47;;;9.37;;
32639;SDS011;19049;52.524;11.468;2024-01-15T00:53:19;14.53;;;8.93;;
32639;SDS011;19049;52.524;11.468;2024-01-15T00:55:47;14.53;;;9.50;;
32639;SDS011;19049;52.524;11.468;2024-01-15T00:58:13;13.90;;;8.33;;
32639;SDS011;19049;52.524;11.468;2024-01-15T01:00:38;14.33;;;8.23;;
32639;SDS011;19049;52.524;11.468;2024-01-15T01:03:04;14.47;;;7.87;;
32639;SDS011;19049;52.524;11.468;2024-01-15T01:05:29;15.33;;;8.37;;
32639;SDS011;19049;52.524;11.468;2024-01-15T01:07:55;15.33;;;8.70;;
32639;SDS011;19049;52.524;11.468;2024-01-15T01:10:20;13.30;;;7.73;;
32639;SDS011;19049;52.524;11.468;2024-01-15T01:12:46;16.57;;;8.40;;
32639;SDS011;19049;52.524;11.468;2024-01-15T01:15:11;11.33;;;7.80;;
32639;SDS011;19049;52.524;11.468;2024-01-15T01:17:37;12.77;;;7.63;;
32639;SDS011;19049;52.524;11.468;2024-01-15T01:20:03;14.77;;;8.47;;
32639;SDS011;19049;52.524;11.468;2024-01-15T01:22:31;12.57;;;8.10;;
32639;SDS011;19049;52.524;11.468;2024-01-15T01:24:56;14.33;;;7.47;;
32639;SDS011;19049;52.524;11.468;2024-01-15T01:27:22;11.77;;;7.50;;
32639;SDS011;19049;52.524;11.468;2024-01-15T01:29:47;15.13;;;8.43;;
32639;SDS011;19049;52.524;11.468;2024-01-15T01:32:13;14.07;;;7.60;;
32639;SDS011;19049;52.524;11.468;2024-01-15T01:34:42;11.27;;;6.53;;
32639;SDS011;19049;52.524;11.468;2024-01-15T01:37:07;12.70;;;6.83;;
32639;SDS011;19049;52.524;11.468;2024-01-15T01:39:33;9.20;;;6.43;;
32639;SDS011;19049;52.524;11.468;2024-01-15T01:41:59;12.90;;;6.77;;
32639;SDS011;19049;52.524;11.468;2024-01-15T01:44:24;12.97;;;7.03;;
32639;SDS011;19049;52.524;11.468;2024-01-15T01:46:50;13.27;;;6.57;;
32639;SDS011;19049;52.524;11.468;2024-01-15T01:49:16;12.00;;;6.30;;
32639;SDS011;19049;52.524;11.468;2024-01-15T01:51:42;11.20;;;5.97;;
32639;SDS011;19049;52.524;11.468;2024-01-15T01:54:08;12.07;;;7.40;;
32639;SDS011;19049;52.524;11.468;2024-01-15T01:56:36;10.73;;;5.90;;
32639;SDS011;19049;52.524;11.468;2024-01-15T01:59:02;12.00;;;6.73;;
32639;SDS011;19049;52.524;11.468;2024-01-15T02:01:30;10.77;;;5.97;;
32639;SDS011;19049;52.524;11.468;2024-01-15T02:03:56;12.47;;;6.33;;
32639;SDS011;19049;52.524;11.468;2024-01-15T02:06:23;11.30;;;5.97;;
32639;SDS011;19049;52.524;11.468;2024-01-15T02:08:48;12.13;;;5.70;;
32639;SDS011;19049;52.524;11.468;2024-01-15T02:11:15;11.03;;;5.80;;
32639;SDS011;19049;52.524;11.468;2024-01-15T02:13:40;10.37;;;5.73;;
32639;SDS011;19049;52.524;11.468;2024-01-15T02:16:06;11.40;;;5.30;;
32639;SDS011;19049;52.524;11.468;2024-01-15T02:18:45;12.13;;;5.53;;
32639;SDS011;19049;52.524;11.468;2024-01-15T02:21:11;11.77;;;5.53;;
32639;SDS011;19049;52.524;11.468;2024-01-15T02:23:37;10.67;;;5.90;;
32639;SDS011;19049;52.524;11.468;2024-01-15T02:26:03;13.70;;;6.27;;
32639;SDS011;19049;52.524;11.468;2024-01-15T02:28:30;10.73;;;5.23;;
32639;SDS011;19049;52.524;11.468;2024-01-15T02:30:57;11.20;;;5.33;;
32639;SDS011;19049;52.524;11.468;2024-01-15T02:33:22;13.27;;;5.23;;
32639;SDS011;19049;52.524;11.468;2024-01-15T02:35:48;7.73;;;4.70;;
32639;SDS011;19049;52.524;11.468;2024-01-15T02:38:15;10.80;;;4.47;;
32639;SDS011;19049;52.524;11.468;2024-01-15T02:40:41;13.37;;;5.33;;
32639;SDS011;19049;52.524;11.468;2024-01-15T02:43:06;10.87;;;5.00;;
32639;SDS011;19049;52.524;11.468;2024-01-15T02:45:32;12.30;;;4.77;;
32639;SDS011;19049;52.524;11.468;2024-01-15T02:47:58;11.03;;;5.07;;
32639;SDS011;19049;52.524;11.468;2024-01-15T02:50:23;11.67;;;4.87;;
32639;SDS011;19049;52.524;11.468;2024-01-15T02:52:49;8.37;;;4.13;;
32639;SDS011;19049;52.524;11.468;2024-01-15T02:55:14;9.53;;;5.13;;
32639;SDS011;19049;52.524;11.468;2024-01-15T02:57:40;8.67;;;4.43;;
32639;SDS011;19049;52.524;11.468;2024-01-15T03:00:06;7.63;;;4.07;;
32639;SDS011;19049;52.524;11.468;2024-01-15T03:02:32;13.43;;;5.00;;
32639;SDS011;19049;52.524;11.468;2024-01-15T03:04:58;8.47;;;4.10;;
32639;SDS011;19049;52.524;11.468;2024-01-15T03:07:23;7.00;;;3.80;;
32639;SDS011;19049;52.524;11.468;2024-01-15T03:09:49;7.57;;;3.90;;
32639;SDS011;19049;52.524;11.468;2024-01-15T03:12:15;8.67;;;3.97;;
32639;SDS011;19049;52.524;11.468;2024-01-15T03:14:40;15.57;;;3.80;;
32639;SDS011;19049;52.524;11.468;2024-01-15T03:17:06;7.40;;;3.20;;
32639;SDS011;19049;52.524;11.468;2024-01-15T03:19:34;11.97;;;3.60;;
32639;SDS011;19049;52.524;11.468;2024-01-15T03:22:00;9.83;;;3.37;;
32639;SDS011;19049;52.524;11.468;2024-01-15T03:24:27;6.60;;;3.47;;
32639;SDS011;19049;52.524;11.468;2024-01-15T03:26:53;6.47;;;3.20;;
32639;SDS011;19049;52.524;11.468;2024-01-15T03:29:18;8.40;;;3.57;;
32639;SDS011;19049;52.524;11.468;2024-01-15T03:31:44;6.77;;;2.77;;
32639;SDS011;19049;52.524;11.468;2024-01-15T03:34:09;8.30;;;2.87;;
32639;SDS011;19049;52.524;11.468;2024-01-15T03:36:35;11.57;;;3.53;;
32639;SDS011;19049;52.524;11.468;2024-01-15T03:39:00;7.93;;;3.37;;
32639;SDS011;19049;52.524;11.468;2024-01-15T03:41:26;8.93;;;3.03;;
32639;SDS011;19049;52.524;11.468;2024-01-15T03:43:52;9.43;;;3.43;;
32639;SDS011;19049;52.524;11.468;2024-01-15T03:46:17;11.73;;;2.63;;
32639;SDS011;19049;52.524;11.468;2024-01-15T03:48:43;6.23;;;2.50;;
32639;SDS011;19049;52.524;11.468;2024-01-15T03:51:08;10.87;;;3.10;;
32639;SDS011;19049;52.524;11.468;2024-01-15T03:53:34;5.63;;;2.83;;
32639;SDS011;19049;52.524;11.468;2024-01-15T03:55:59;7.90;;;2.37;;
32639;SDS011;19049;52.524;11.468;2024-01-15T03:58:25;8.20;;;2.93;;
32639;SDS011;19049;52.524;11.468;2024-01-15T04:00:50;10.27;;;2.93;;
32639;SDS011;19049;52.524;11.468;2024-01-15T04:03:16;3.70;;;2.17;;
32639;SDS011;19049;52.524;11.468;2024-01-15T04:05:42;5.30;;;2.10;;
32639;SDS011;19049;52.524;11.468;2024-01-15T04:08:07;6.37;;;1.87;;
32639;SDS011;19049;52.524;11.468;2024-01-15T04:10:33;7.83;;;2.47;;
32639;SDS011;19049;52.524;11.468;2024-01-15T04:12:58;7.97;;;2.23;;
32639;SDS011;19049;52.524;11.468;2024-01-15T04:15:25;7.97;;;1.80;;
32639;SDS011;19049;52.524;11.468;2024-01-15T04:17:51;6.57;;;2.20;;
32639;SDS011;19049;52.524;11.468;2024-01-15T04:20:17;5.43;;;1.93;;
32639;SDS011;19049;52.524;11.468;2024-01-15T04:22:43;7.70;;;2.20;;
32639;SDS011;19049;52.524;11.468;2024-01-15T04:25:09;8.70;;;2.13;;
32639;SDS011;19049;52.524;11.468;2024-01-15T04:27:34;5.70;;;1.97;;
32639;SDS011;19049;52.524;11.468;2024-01-15T04:30:00;7.37;;;2.20;;
32639;SDS011;19049;52.524;11.468;2024-01-15T04:32:25;6.67;;;1.80;;
32639;SDS011;19049;52.524;11.468;2024-01-15T04:34:51;8.40;;;2.13;;
32639;SDS011;19049;52.524;11.468;2024-01-15T04:37:16;9.23;;;2.17;;
32639;SDS011;19049;52.524;11.468;2024-01-15T04:39:42;7.70;;;1.90;;
32639;SDS011;19049;52.524;11.468;2024-01-15T04:42:08;5.93;;;1.80;;
32639;SDS011;19049;52.524;11.468;2024-01-15T04:44:33;9.37;;;1.80;;
32639;SDS011;19049;52.524;11.468;2024-01-15T04:46:59;6.00;;;1.83;;
32639;SDS011;19049;52.524;11.468;2024-01-15T04:49:24;5.83;;;1.87;;
32639;SDS011;19049;52.524;11.468;2024-01-15T04:51:52;8.47;;;2.13;;
32639;SDS011;19049;52.524;11.468;2024-01-15T04:54:17;6.90;;;2.20;;
32639;SDS011;19049;52.524;11.468;2024-01-15T04:56:43;7.47;;;2.07;;
32639;SDS011;19049;52.524;11.468;2024-01-15T04:59:09;8.80;;;2.73;;
32639;SDS011;19049;52.524;11.468;2024-01-15T05:01:35;4.90;;;1.47;;
32639;SDS011;19049;52.524;11.468;2024-01-15T05:04:01;10.13;;;2.20;;
32639;SDS011;19049;52.524;11.468;2024-01-15T05:06:27;8.43;;;2.13;;
32639;SDS011;19049;52.524;11.468;2024-01-15T05:08:52;9.03;;;2.30;;
32639;SDS011;19049;52.524;11.468;2024-01-15T05:11:18;8.70;;;2.27;;
32639;SDS011;19049;52.524;11.468;2024-01-15T05:13:43;13.10;;;2.47;;
32639;SDS011;19049;52.524;11.468;2024-01-15T05:16:09;5.10;;;1.47;;
32639;SDS011;19049;52.524;11.468;2024-01-15T05:18:35;7.40;;;1.60;;
32639;SDS011;19049;52.524;11.468;2024-01-15T05:21:02;6.33;;;1.50;;
32639;SDS011;19049;52.524;11.468;2024-01-15T05:23:28;6.90;;;1.40;;
32639;SDS011;19049;52.524;11.468;2024-01-15T05:25:53;10.13;;;1.40;;
32639;SDS011;19049;52.524;11.468;2024-01-15T05:28:19;7.53;;;1.73;;
32639;SDS011;19049;52.524;11.468;2024-01-15T05:30:44;8.20;;;1.80;;
32639;SDS011;19049;52.524;11.468;2024-01-15T05:33:10;8.53;;;2.13;;
32639;SDS011;19049;52.524;11.468;2024-01-15T05:35:36;8.27;;;1.53;;
32639;SDS011;19049;52.524;11.468;2024-01-15T05:38:01;7.30;;;1.70;;
32639;SDS011;19049;52.524;11.468;2024-01-15T05:40:27;9.87;;;2.13;;
32639;SDS011;19049;52.524;11.468;2024-01-15T05:42:53;8.13;;;1.50;;
32639;SDS011;19049;52.524;11.468;2024-01-15T05:45:19;9.97;;;1.87;;
32639;SDS011;19049;52.524;11.468;2024-01-15T05:47:44;9.27;;;1.87;;
32639;SDS011;19049;52.524;11.468;2024-01-15T05:50:10;6.07;;;1.70;;
32639;SDS011;19049;52.524;11.468;2024-01-15T05:52:36;8.40;;;1.93;;
32639;SDS011;19049;52.524;11.468;2024-01-15T05:55:01;8.33;;;1.90;;
32639;SDS011;19049;52.524;11.468;2024-01-15T05:57:27;7.60;;;1.73;;
32639;SDS011;19049;52.524;11.468;2024-01-15T05:59:53;5.37;;;1.30;;
32639;SDS011;19049;52.524;11.468;2024-01-15T06:02:19;5.90;;;1.70;;
32639;SDS011;19049;52.524;11.468;2024-01-15T06:04:44;11.07;;;1.67;;
32639;SDS011;19049;52.524;11.468;2024-01-15T06:07:10;13.23;;;1.90;;
32639;SDS011;19049;52.524;11.468;2024-01-15T06:09:36;8.47;;;1.67;;
32639;SDS011;19049;52.524;11.468;2024-01-15T06:12:01;4.87;;;1.40;;
32639;SDS011;19049;52.524;11.468;2024-01-15T06:14:27;7.77;;;1.50;;
32639;SDS011;19049;52.524;11.468;2024-01-15T06:16:52;5.57;;;1.33;;
32639;SDS011;19049;52.524;11.468;2024-01-15T06:19:18;4.80;;;1.50;;
32639;SDS011;19049;52.524;11.468;2024-01-15T06:21:44;4.87;;;1.63;;
32639;SDS011;19049;52.524;11.468;2024-01-15T06:24:09;7.83;;;1.60;;
32639;SDS011;19049;52.524;11.468;2024-01-15T06:26:35;5.37;;;1.30;;
32639;SDS011;19049;52.524;11.468;2024-01-15T06:29:01;10.27;;;1.63;;
32639;SDS011;19049;52.524;11.468;2024-01-15T06:31:27;5.80;;;1.23;;
32639;SDS011;19049;52.524;11.468;2024-01-15T06:33:53;5.40;;;1.27;;
32639;SDS011;19049;52.524;11.468;2024-01-15T06:36:19;5.57;;;1.50;;
32639;SDS011;19049;52.524;11.468;2024-01-15T06:38:45;4.03;;;0.90;;
32639;SDS011;19049;52.524;11.468;2024-01-15T06:41:10;5.27;;;1.73;;
32639;SDS011;19049;52.524;11.468;2024-01-15T06:43:36;3.93;;;1.03;;
32639;SDS011;19049;52.524;11.468;2024-01-15T06:46:01;5.73;;;1.47;;
32639;SDS011;19049;52.524;11.468;2024-01-15T06:48:27;2.40;;;1.10;;
32639;SDS011;19049;52.524;11.468;2024-01-15T06:50:53;4.77;;;1.47;;
32639;SDS011;19049;52.524;11.468;2024-01-15T06:53:18;5.93;;;1.57;;
32639;SDS011;19049;52.524;11.468;2024-01-15T06:55:44;4.30;;;1.40;;
32639;SDS011;19049;52.524;11.468;2024-01-15T06:58:10;6.07;;;1.70;;
32639;SDS011;19049;52.524;11.468;2024-01-15T07:00:35;4.77;;;1.80;;
32639;SDS011;19049;52.524;11.468;2024-01-15T07:03:01;6.77;;;1.90;;
32639;SDS011;19049;52.524;11.468;2024-01-15T07:05:26;6.47;;;1.90;;
32639;SDS011;19049;52.524;11.468;2024-01-15T07:07:52;9.93;;;2.23;;
32639;SDS011;19049;52.524;11.468;2024-01-15T07:10:17;5.67;;;2.33;;
32639;SDS011;19049;52.524;11.468;2024-01-15T07:12:43;7.93;;;1.83;;
32639;SDS011;19049;52.524;11.468;2024-01-15T07:15:09;6.13;;;2.20;;
32639;SDS011;19049;52.524;11.468;2024-01-15T07:17:34;10.10;;;2.50;;
32639;SDS011;19049;52.524;11.468;2024-01-15T07:20:00;8.97;;;2.50;;
32639;SDS011;19049;52.524;11.468;2024-01-15T07:22:27;5.73;;;2.00;;
32639;SDS011;19049;52.524;11.468;2024-01-15T07:24:52;8.50;;;1.70;;
32639;SDS011;19049;52.524;11.468;2024-01-15T07:27:18;5.43;;;2.07;;
32639;SDS011;19049;52.524;11.468;2024-01-15T07:29:43;8.97;;;1.90;;
32639;SDS011;19049;52.524;11.468;2024-01-15T07:32:09;7.80;;;2.00;;
32639;SDS011;19049;52.524;11.468;2024-01-15T07:34:35;7.03;;;2.00;;
32639;SDS011;19049;52.524;11.468;2024-01-15T07:37:01;5.90;;;1.93;;
32639;SDS011;19049;52.524;11.468;2024-01-15T07:39:26;5.40;;;2.30;;
32639;SDS011;19049;52.524;11.468;2024-01-15T07:41:53;10.13;;;2.10;;
32639;SDS011;19049;52.524;11.468;2024-01-15T07:44:19;5.30;;;2.20;;
32639;SDS011;19049;52.524;11.468;2024-01-15T07:46:48;12.77;;;2.50;;
32639;SDS011;19049;52.524;11.468;2024-01-15T07:49:13;5.00;;;1.80;;
32639;SDS011;19049;52.524;11.468;2024-01-15T07:51:39;5.93;;;1.63;;
32639;SDS011;19049;52.524;11.468;2024-01-15T07:54:11;5.90;;;2.10;;
32639;SDS011;19049;52.524;11.468;2024-01-15T07:59:20;6.87;;;1.40;;
32639;SDS011;19049;52.524;11.468;2024-01-15T08:01:46;6.10;;;1.87;;
32639;SDS011;19049;52.524;11.468;2024-01-15T08:04:12;4.47;;;1.60;;
32639;SDS011;19049;52.524;11.468;2024-01-15T08:06:38;5.17;;;1.70;;
32639;SDS011;19049;52.524;11.468;2024-01-15T08:09:03;3.30;;;1.60;;
32639;SDS011;19049;52.524;11.468;2024-01-15T08:11:29;6.90;;;2.13;;
32639;SDS011;19049;52.524;11.468;2024-01-15T08:13:55;4.43;;;2.20;;
32639;SDS011;19049;52.524;11.468;2024-01-15T08:16:21;6.00;;;2.30;;
32639;SDS011;19049;52.524;11.468;2024-01-15T08:18:47;6.80;;;2.90;;
32639;SDS011;19049;52.524;11.468;2024-01-15T08:21:12;9.50;;;3.30;;
32639;SDS011;19049;52.524;11.468;2024-01-15T08:23:38;9.43;;;2.90;;
32639;SDS011;19049;52.524;11.468;2024-01-15T08:26:04;7.43;;;2.73;;
32639;SDS011;19049;52.524;11.468;2024-01-15T08:28:29;5.63;;;3.47;;
32639;SDS011;19049;52.524;11.468;2024-01-15T08:30:55;6.60;;;2.80;;
32639;SDS011;19049;52.524;11.468;2024-01-15T08:33:21;7.10;;;2.60;;
32639;SDS011;19049;52.524;11.468;2024-01-15T08:35:46;7.57;;;3.60;;
32639;SDS011;19049;52.524;11.468;2024-01-15T08:38:12;5.03;;;2.60;;
32639;SDS011;19049;52.524;11.468;2024-01-15T08:40:38;8.47;;;3.27;;
32639;SDS011;19049;52.524;11.468;2024-01-15T08:43:03;5.40;;;2.70;;
32639;SDS011;19049;52.524;11.468;2024-01-15T08:45:31;4.90;;;2.80;;
32639;SDS011;19049;52.524;11.468;2024-01-15T08:47:57;5.60;;;2.43;;
32639;SDS011;19049;52.524;11.468;2024-01-15T08:50:22;9.90;;;2.90;;
32639;SDS011;19049;52.524;11.468;2024-01-15T08:52:48;5.57;;;2.20;;
32639;SDS011;19049;52.524;11.468;2024-01-15T08:55:13;5.47;;;1.93;;
32639;SDS011;19049;52.524;11.468;2024-01-15T08:57:39;5.53;;;2.00;;
32639;SDS011;19049;52.524;11.468;2024-01-15T09:00:05;5.73;;;2.20;;
32639;SDS011;19049;52.524;11.468;2024-01-15T09:02:33;6.23;;;2.40;;
32639;SDS011;19049;52.524;11.468;2024-01-15T09:04:59;5.97;;;1.93;;
32639;SDS011;19049;52.524;11.468;2024-01-15T09:07:25;6.07;;;1.90;;
32639;SDS011;19049;52.524;11.468;2024-01-15T09:09:51;5.97;;;2.73;;
32639;SDS011;19049;52.524;11.468;2024-01-15T09:12:17;6.43;;;2.20;;
32639;SDS011;19049;52.524;11.468;2024-01-15T09:14:43;5.40;;;2.00;;
32639;SDS011;19049;52.524;11.468;2024-01-15T09:17:09;3.90;;;1.60;;
32639;SDS011;19049;52.524;11.468;2024-01-15T09:19:34;8.10;;;2.20;;
32639;SDS011;19049;52.524;11.468;2024-01-15T09:22:00;3.77;;;1.80;;
32639;SDS011;19049;52.524;11.468;2024-01-15T09:24:25;7.63;;;2.10;;
32639;SDS011;19049;52.524;11.468;2024-01-15T09:26:51;4.93;;;2.17;;
32639;SDS011;19049;52.524;11.468;2024-01-15T09:29:17;4.80;;;2.20;;
32639;SDS011;19049;52.524;11.468;2024-01-15T09:31:43;5.77;;;1.93;;
32639;SDS011;19049;52.524;11.468;2024-01-15T09:34:08;6.37;;;2.37;;
32639;SDS011;19049;52.524;11.468;2024-01-15T09:36:39;5.43;;;2.10;;
32639;SDS011;19049;52.524;11.468;2024-01-15T09:39:06;4.53;;;2.30;;
32639;SDS011;19049;52.524;11.468;2024-01-15T09:41:33;6.20;;;2.50;;
32639;SDS011;19049;52.524;11.468;2024-01-15T09:44:01;3.37;;;2.23;;
32639;SDS011;19049;52.524;11.468;2024-01-15T09:46:28;7.97;;;2.70;;
32639;SDS011;19049;52.524;11.468;2024-01-15T09:48:53;8.40;;;3.10;;
32639;SDS011;19049;52.524;11.468;2024-01-15T09:51:19;5.47;;;2.90;;
32639;SDS011;19049;52.524;11.468;2024-01-15T09:53:45;6.60;;;2.67;;
32639;SDS011;19049;52.524;11.468;2024-01-15T09:56:12;4.33;;;3.10;;
32639;SDS011;19049;52.524;11.468;2024-01-15T09:58:38;8.00;;;3.83;;
32639;SDS011;19049;52.524;11.468;2024-01-15T10:01:04;6.67;;;3.33;;
32639;SDS011;19049;52.524;11.468;2024-01-15T10:03:30;6.57;;;3.43;;
32639;SDS011;19049;52.524;11.468;2024-01-15T10:05:55;8.33;;;3.30;;
32639;SDS011;19049;52.524;11.468;2024-01-15T10:08:24;5.90;;;3.27;;
32639;SDS011;19049;52.524;11.468;2024-01-15T10:10:50;5.30;;;3.83;;
32639;SDS011;19049;52.524;11.468;2024-01-15T10:13:15;7.10;;;3.73;;
32639;SDS011;19049;52.524;11.468;2024-01-15T10:15:44;6.17;;;3.63;;
32639;SDS011;19049;52.524;11.468;2024-01-15T10:18:11;7.10;;;3.50;;
32639;SDS011;19049;52.524;11.468;2024-01-15T10:20:37;4.13;;;3.20;;
32639;SDS011;19049;52.524;11.468;2024-01-15T10:23:03;6.60;;;3.47;;
32639;SDS011;19049;52.524;11.468;2024-01-15T10:25:29;6.70;;;4.13;;
32639;SDS011;19049;52.524;11.468;2024-01-15T10:28:02;5.90;;;4.27;;
32639;SDS011;19049;52.524;11.468;2024-01-15T10:30:29;6.10;;;4.70;;
32639;SDS011;19049;52.524;11.468;2024-01-15T10:32:59;7.80;;;4.50;;
32639;SDS011;19049;52.524;11.468;2024-01-15T10:35:28;6.23;;;5.00;;
32639;SDS011;19049;52.524;11.468;2024-01-15T10:38:01;6.67;;;3.73;;
32639;SDS011;19049;52.524;11.468;2024-01-15T10:40:27;6.50;;;3.30;;
32639;SDS011;19049;52.524;11.468;2024-01-15T10:42:53;7.80;;;3.90;;
32639;SDS011;19049;52.524;11.468;2024-01-15T10:45:19;5.10;;;3.80;;
32639;SDS011;19049;52.524;11.468;2024-01-15T10:47:45;5.90;;;3.90;;
32639;SDS011;19049;52.524;11.468;2024-01-15T10:50:11;6.13;;;3.77;;
32639;SDS011;19049;52.524;11.468;2024-01-15T10:52:38;5.07;;;3.77;;
32639;SDS011;19049;52.524;11.468;2024-01-15T10:55:10;5.03;;;3.23;;
32639;SDS011;19049;52.524;11.468;2024-01-15T10:57:37;3.80;;;2.83;;
32639;SDS011;19049;52.524;11.468;2024-01-15T11:00:06;4.43;;;2.77;;
32639;SDS011;19049;52.524;11.468;2024-01-15T11:02:34;5.07;;;2.93;;
32639;SDS011;19049;52.524;11.468;2024-01-15T11:05:02;4.33;;;2.10;;
32639;SDS011;19049;52.524;11.468;2024-01-15T11:07:28;4.20;;;2.00;;
32639;SDS011;19049;52.524;11.468;2024-01-15T11:09:55;5.67;;;2.80;;
32639;SDS011;19049;52.524;11.468;2024-01-15T11:12:23;4.33;;;2.03;;
32639;SDS011;19049;52.524;11.468;2024-01-15T11:14:49;5.20;;;2.40;;
32639;SDS011;19049;52.524;11.468;2024-01-15T11:17:15;4.30;;;1.97;;
32639;SDS011;19049;52.524;11.468;2024-01-15T11:19:43;5.57;;;2.50;;
32639;SDS011;19049;52.524;11.468;2024-01-15T11:22:56;3.90;;;1.83;;
32639;SDS011;19049;52.524;11.468;2024-01-15T11:25:03;6.30;;;2.27;;
32639;SDS011;19049;52.524;11.468;2024-01-15T11:27:42;4.67;;;2.13;;
32639;SDS011;19049;52.524;11.468;2024-01-15T11:30:17;8.60;;;2.13;;
32639;SDS011;19049;52.524;11.468;2024-01-15T11:32:47;5.70;;;2.27;;
32639;SDS011;19049;52.524;11.468;2024-01-15T11:35:12;7.03;;;2.07;;
32639;SDS011;19049;52.524;11.468;2024-01-15T11:40:20;6.23;;;2.00;;
32639;SDS011;19049;52.524;11.468;2024-01-15T11:42:47;8.90;;;2.33;;
32639;SDS011;19049;52.524;11.468;2024-01-15T11:45:13;8.27;;;2.00;;
32639;SDS011;19049;52.524;11.468;2024-01-15T11:50:36;4.97;;;1.73;;
32639;SDS011;19049;52.524;11.468;2024-01-15T11:53:16;6.30;;;2.40;;
32639;SDS011;19049;52.524;11.468;2024-01-15T11:55:46;6.63;;;2.07;;
32639;SDS011;19049;52.524;11.468;2024-01-15T11:58:13;6.53;;;1.73;;
32639;SDS011;19049;52.524;11.468;2024-01-15T12:00:42;6.17;;;1.93;;
32639;SDS011;19049;52.524;11.468;2024-01-15T12:03:09;8.20;;;1.73;;
32639;SDS011;19049;52.524;11.468;2024-01-15T12:05:36;6.90;;;2.00;;
32639;SDS011;19049;52.524;11.468;2024-01-15T12:08:06;4.83;;;1.70;;
32639;SDS011;19049;52.524;11.468;2024-01-15T12:10:38;8.50;;;2.33;;
32639;SDS011;19049;52.524;11.468;2024-01-15T12:13:09;4.50;;;1.50;;
32639;SDS011;19049;52.524;11.468;2024-01-15T12:15:36;6.13;;;1.53;;
32639;SDS011;19049;52.524;11.468;2024-01-15T12:18:03;8.20;;;1.73;;
32639;SDS011;19049;52.524;11.468;2024-01-15T12:20:29;6.70;;;1.73;;
32639;SDS011;19049;52.524;11.468;2024-01-15T12:22:56;6.47;;;1.60;;
32639;SDS011;19049;52.524;11.468;2024-01-15T12:25:22;7.23;;;1.47;;
32639;SDS011;19049;52.524;11.468;2024-01-15T12:27:49;4.50;;;1.20;;
32639;SDS011;19049;52.524;11.468;2024-01-15T12:30:15;7.13;;;1.30;;
32639;SDS011;19049;52.524;11.468;2024-01-15T12:32:41;5.93;;;1.40;;
32639;SDS011;19049;52.524;11.468;2024-01-15T12:35:07;5.03;;;1.33;;
32639;SDS011;19049;52.524;11.468;2024-01-15T12:37:38;2.63;;;1.00;;
32639;SDS011;19049;52.524;11.468;2024-01-15T12:40:05;2.83;;;1.13;;
32639;SDS011;19049;52.524;11.468;2024-01-15T12:42:36;6.63;;;1.70;;
32639;SDS011;19049;52.524;11.468;2024-01-15T12:45:02;4.80;;;1.30;;
32639;SDS011;19049;52.524;11.468;2024-01-15T12:47:29;5.97;;;1.40;;
32639;SDS011;19049;52.524;11.468;2024-01-15T12:49:55;5.27;;;1.37;;
32639;SDS011;19049;52.524;11.468;2024-01-15T12:52:22;5.53;;;1.53;;
32639;SDS011;19049;52.524;11.468;2024-01-15T12:54:51;6.00;;;1.57;;
32639;SDS011;19049;52.524;11.468;2024-01-15T12:57:16;5.27;;;1.53;;
32639;SDS011;19049;52.524;11.468;2024-01-15T12:59:43;4.63;;;1.47;;
32639;SDS011;19049;52.524;11.468;2024-01-15T13:02:09;4.70;;;1.03;;
32639;SDS011;19049;52.524;11.468;2024-01-15T13:04:36;4.07;;;1.07;;
32639;SDS011;19049;52.524;11.468;2024-01-15T13:07:02;5.47;;;1.70;;
32639;SDS011;19049;52.524;11.468;2024-01-15T13:09:28;7.33;;;1.33;;
32639;SDS011;19049;52.524;11.468;2024-01-15T13:11:54;4.90;;;1.20;;
32639;SDS011;19049;52.524;11.468;2024-01-15T13:14:20;4.93;;;1.60;;
32639;SDS011;19049;52.524;11.468;2024-01-15T13:16:46;5.23;;;2.00;;
32639;SDS011;19049;52.524;11.468;2024-01-15T13:19:11;5.03;;;1.40;;
32639;SDS011;19049;52.524;11.468;2024-01-15T13:21:38;5.87;;;1.57;;
32639;SDS011;19049;52.524;11.468;2024-01-15T13:24:05;5.13;;;1.30;;
32639;SDS011;19049;52.524;11.468;2024-01-15T13:26:34;5.37;;;2.47;;
32639;SDS011;19049;52.524;11.468;2024-01-15T13:29:03;3.67;;;1.60;;
32639;SDS011;19049;52.524;11.468;2024-01-15T13:31:29;14.00;;;4.40;;
32639;SDS011;19049;52.524;11.468;2024-01-15T13:33:55;10.20;;;5.57;;
32639;SDS011;19049;52.524;11.468;2024-01-15T13:36:21;6.00;;;3.50;;
32639;SDS011;19049;52.524;11.468;2024-01-15T13:38:50;5.63;;;2.70;;
32639;SDS011;19049;52.524;11.468;2024-01-15T13:41:17;5.60;;;2.77;;
32639;SDS011;19049;52.524;11.468;2024-01-15T13:43:50;5.90;;;3.43;;
32639;SDS011;19049;52.524;11.468;2024-01-15T13:46:17;4.80;;;1.97;;
32639;SDS011;19049;52.524;11.468;2024-01-15T13:48:45;7.87;;;2.43;;
32639;SDS011;19049;52.524;11.468;2024-01-15T13:51:10;6.13;;;2.93;;
32639;SDS011;19049;52.524;11.468;2024-01-15T13:53:37;6.90;;;2.73;;
32639;SDS011;19049;52.524;11.468;2024-01-15T13:56:04;7.00;;;2.73;;
32639;SDS011;19049;52.524;11.468;2024-01-15T13:58:31;6.53;;;2.50;;
32639;SDS011;19049;52.524;11.468;2024-01-15T14:00:58;6.80;;;2.70;;
32639;SDS011;19049;52.524;11.468;2024-01-15T14:03:24;8.10;;;3.17;;
32639;SDS011;19049;52.524;11.468;2024-01-15T14:05:51;5.27;;;2.47;;
32639;SDS011;19049;52.524;11.468;2024-01-15T14:08:16;7.27;;;2.87;;
32639;SDS011;19049;52.524;11.468;2024-01-15T14:10:42;8.60;;;3.63;;
32639;SDS011;19049;52.524;11.468;2024-01-15T14:13:08;7.10;;;3.07;;
32639;SDS011;19049;52.524;11.468;2024-01-15T14:15:33;6.97;;;2.77;;
32639;SDS011;19049;52.524;11.468;2024-01-15T14:17:59;11.20;;;3.63;;
32639;SDS011;19049;52.524;11.468;2024-01-15T14:20:26;7.43;;;2.40;;
32639;SDS011;19049;52.524;11.468;2024-01-15T14:22:52;10.23;;;2.83;;
32639;SDS011;19049;52.524;11.468;2024-01-15T14:25:19;9.03;;;2.40;;
32639;SDS011;19049;52.524;11.468;2024-01-15T14:27:45;7.23;;;2.57;;
32639;SDS011;19049;52.524;11.468;2024-01-15T14:30:10;4.33;;;2.07;;
32639;SDS011;19049;52.524;11.468;2024-01-15T14:32:38;12.30;;;2.17;;
32639;SDS011;19049;52.524;11.468;2024-01-15T14:35:05;4.87;;;1.70;;